sensor_id;sensor_type;location;lat;lon;timestamp;temperature;humidity
19200;DHT22;9732;52.498;5.408;2022-09-09T00:01:50;17.00;99.90
19200;DHT22;9732;52.498;5.408;2022-09-09T00:04:25;17.00;99.90
19200;DHT22;9732;52.498;5.408;2022-09-09T00:07:00;16.90;99.90
19200;DHT22;9732;52.498;5.408;2022-09-09T00:09:30;16.90;99.90
19200;DHT22;9732;52.498;5.408;2022-09-09T00:12:01;16.90;99.90
19200;DHT22;9732;52.498;5.408;2022-09-09T00:14:36;16.90;99.90
19200;DHT22;9732;52.498;5.408;2022-09-09T00:17:09;16.90;99.90
19200;DHT22;9732;52.498;5.408;2022-09-09T00:19:46;16.90;99.90
19200;DHT22;9732;52.498;5.408;2022-09-09T00:22:18;16.90;99.90
19200;DHT22;9732;52.498;5.408;2022-09-09T00:24:46;16.90;99.90
19200;DHT22;9732;52.498;5.408;2022-09-09T00:27:19;16.90;99.90
19200;DHT22;9732;52.498;5.408;2022-09-09T00:29:53;16.90;99.90
19200;DHT22;9732;52.498;5.408;2022-09-09T00:32:21;16.90;99.90
19200;DHT22;9732;52.498;5.408;2022-09-09T00:34:53;16.90;99.90
19200;DHT22;9732;52.498;5.408;2022-09-09T00:37:22;16.90;99.90
19200;DHT22;9732;52.498;5.408;2022-09-09T00:39:53;16.90;99.90
19200;DHT22;9732;52.498;5.408;2022-09-09T00:42:25;16.90;99.90
19200;DHT22;9732;52.498;5.408;2022-09-09T00:44:56;16.90;99.90
19200;DHT22;9732;52.498;5.408;2022-09-09T00:47:44;16.80;99.90
19200;DHT22;9732;52.498;5.408;2022-09-09T00:50:29;16.90;99.90
19200;DHT22;9732;52.498;5.408;2022-09-09T00:53:05;16.90;99.90
19200;DHT22;9732;52.498;5.408;2022-09-09T00:55:41;16.90;99.90
19200;DHT22;9732;52.498;5.408;2022-09-09T00:58:12;16.90;99.90
19200;DHT22;9732;52.498;5.408;2022-09-09T01:00:43;16.90;99.90
19200;DHT22;9732;52.498;5.408;2022-09-09T01:03:22;16.90;99.90
19200;DHT22;9732;52.498;5.408;2022-09-09T01:06:11;16.90;99.90
19200;DHT22;9732;52.498;5.408;2022-09-09T01:09:03;16.90;99.90
19200;DHT22;9732;52.498;5.408;2022-09-09T01:11:37;16.90;99.90
19200;DHT22;9732;52.498;5.408;2022-09-09T01:14:14;16.80;99.90
19200;DHT22;9732;52.498;5.408;2022-09-09T01:16:44;16.80;99.90
19200;DHT22;9732;52.498;5.408;2022-09-09T01:19:18;16.80;99.90
19200;DHT22;9732;52.498;5.408;2022-09-09T01:21:52;16.80;99.90
19200;DHT22;9732;52.498;5.408;2022-09-09T01:24:27;16.80;99.90
19200;DHT22;9732;52.498;5.408;2022-09-09T01:26:58;16.70;99.90
19200;DHT22;9732;52.498;5.408;2022-09-09T01:29:27;16.70;99.90
19200;DHT22;9732;52.498;5.408;2022-09-09T01:31:56;16.70;99.90
19200;DHT22;9732;52.498;5.408;2022-09-09T01:34:25;16.70;99.90
19200;DHT22;9732;52.498;5.408;2022-09-09T01:36:57;16.60;99.90
19200;DHT22;9732;52.498;5.408;2022-09-09T01:39:24;16.60;99.90
19200;DHT22;9732;52.498;5.408;2022-09-09T01:41:51;16.60;99.90
19200;DHT22;9732;52.498;5.408;2022-09-09T01:44:20;16.60;99.90
19200;DHT22;9732;52.498;5.408;2022-09-09T01:46:47;16.60;99.90
19200;DHT22;9732;52.498;5.408;2022-09-09T01:49:13;16.60;99.90
19200;DHT22;9732;52.498;5.408;2022-09-09T01:51:42;16.60;99.90
19200;DHT22;9732;52.498;5.408;2022-09-09T01:54:10;16.60;99.90
19200;DHT22;9732;52.498;5.408;2022-09-09T01:56:43;16.60;99.90
19200;DHT22;9732;52.498;5.408;2022-09-09T01:59:26;16.50;99.90
19200;DHT22;9732;52.498;5.408;2022-09-09T02:02:08;16.50;99.90
19200;DHT22;9732;52.498;5.408;2022-09-09T02:04:39;16.50;99.90
19200;DHT22;9732;52.498;5.408;2022-09-09T02:07:15;16.50;99.90
19200;DHT22;9732;52.498;5.408;2022-09-09T02:09:49;16.40;99.90
19200;DHT22;9732;52.498;5.408;2022-09-09T02:12:21;16.40;99.90
19200;DHT22;9732;52.498;5.408;2022-09-09T02:14:56;16.40;99.90
19200;DHT22;9732;52.498;5.408;2022-09-09T02:17:28;16.40;99.90
19200;DHT22;9732;52.498;5.408;2022-09-09T02:20:03;16.40;99.90
19200;DHT22;9732;52.498;5.408;2022-09-09T02:22:33;16.40;99.90
19200;DHT22;9732;52.498;5.408;2022-09-09T02:25:02;16.40;99.90
19200;DHT22;9732;52.498;5.408;2022-09-09T02:27:31;16.40;99.90
19200;DHT22;9732;52.498;5.408;2022-09-09T02:30:00;16.30;99.90
19200;DHT22;9732;52.498;5.408;2022-09-09T02:32:29;16.30;99.90
19200;DHT22;9732;52.498;5.408;2022-09-09T02:34:59;16.30;99.90
19200;DHT22;9732;52.498;5.408;2022-09-09T02:37:32;16.30;99.90
19200;DHT22;9732;52.498;5.408;2022-09-09T02:40:02;16.30;99.90
19200;DHT22;9732;52.498;5.408;2022-09-09T02:42:29;16.30;99.90
19200;DHT22;9732;52.498;5.408;2022-09-09T02:44:55;16.30;99.90
19200;DHT22;9732;52.498;5.408;2022-09-09T02:47:30;16.30;99.90
19200;DHT22;9732;52.498;5.408;2022-09-09T02:50:07;16.30;99.90
19200;DHT22;9732;52.498;5.408;2022-09-09T02:52:42;16.30;99.90
19200;DHT22;9732;52.498;5.408;2022-09-09T02:55:17;16.20;99.90
19200;DHT22;9732;52.498;5.408;2022-09-09T02:57:47;16.20;99.90
19200;DHT22;9732;52.498;5.408;2022-09-09T03:00:14;16.20;99.90
19200;DHT22;9732;52.498;5.408;2022-09-09T03:02:42;16.20;99.90
19200;DHT22;9732;52.498;5.408;2022-09-09T03:05:10;16.20;99.90
19200;DHT22;9732;52.498;5.408;2022-09-09T03:07:38;16.20;99.90
19200;DHT22;9732;52.498;5.408;2022-09-09T03:10:06;16.20;99.90
19200;DHT22;9732;52.498;5.408;2022-09-09T03:12:33;16.20;99.90
19200;DHT22;9732;52.498;5.408;2022-09-09T03:15:00;16.20;99.90
19200;DHT22;9732;52.498;5.408;2022-09-09T03:17:26;16.20;99.90
19200;DHT22;9732;52.498;5.408;2022-09-09T03:19:54;16.20;99.90
19200;DHT22;9732;52.498;5.408;2022-09-09T03:22:23;16.20;99.90
19200;DHT22;9732;52.498;5.408;2022-09-09T03:24:51;16.10;99.90
19200;DHT22;9732;52.498;5.408;2022-09-09T03:27:18;16.10;99.90
19200;DHT22;9732;52.498;5.408;2022-09-09T03:29:45;16.10;99.90
19200;DHT22;9732;52.498;5.408;2022-09-09T03:32:14;16.10;99.90
19200;DHT22;9732;52.498;5.408;2022-09-09T03:34:42;16.10;99.90
19200;DHT22;9732;52.498;5.408;2022-09-09T03:37:10;16.10;99.90
19200;DHT22;9732;52.498;5.408;2022-09-09T03:39:37;16.10;99.90
19200;DHT22;9732;52.498;5.408;2022-09-09T03:42:04;16.00;99.90
19200;DHT22;9732;52.498;5.408;2022-09-09T03:44:31;16.00;99.90
19200;DHT22;9732;52.498;5.408;2022-09-09T03:46:58;16.00;99.90
19200;DHT22;9732;52.498;5.408;2022-09-09T03:49:26;16.00;99.90
19200;DHT22;9732;52.498;5.408;2022-09-09T03:51:54;16.00;99.90
19200;DHT22;9732;52.498;5.408;2022-09-09T03:54:23;16.00;99.90
19200;DHT22;9732;52.498;5.408;2022-09-09T03:56:50;16.00;99.90
19200;DHT22;9732;52.498;5.408;2022-09-09T03:59:17;16.00;99.90
19200;DHT22;9732;52.498;5.408;2022-09-09T04:01:44;15.90;99.90
19200;DHT22;9732;52.498;5.408;2022-09-09T04:04:12;15.90;99.90
19200;DHT22;9732;52.498;5.408;2022-09-09T04:06:39;15.90;99.90
19200;DHT22;9732;52.498;5.408;2022-09-09T04:09:06;15.90;99.90
19200;DHT22;9732;52.498;5.408;2022-09-09T04:11:34;15.90;99.90
19200;DHT22;9732;52.498;5.408;2022-09-09T04:14:00;15.80;99.90
19200;DHT22;9732;52.498;5.408;2022-09-09T04:16:27;15.90;99.90
19200;DHT22;9732;52.498;5.408;2022-09-09T04:18:54;15.80;99.90
19200;DHT22;9732;52.498;5.408;2022-09-09T04:21:21;15.80;99.90
19200;DHT22;9732;52.498;5.408;2022-09-09T04:23:48;15.80;99.90
19200;DHT22;9732;52.498;5.408;2022-09-09T04:26:15;15.70;99.90
19200;DHT22;9732;52.498;5.408;2022-09-09T04:28:43;15.70;99.90
19200;DHT22;9732;52.498;5.408;2022-09-09T04:31:14;15.70;99.90
19200;DHT22;9732;52.498;5.408;2022-09-09T04:33:42;15.70;99.90
19200;DHT22;9732;52.498;5.408;2022-09-09T04:36:08;15.70;99.90
19200;DHT22;9732;52.498;5.408;2022-09-09T04:38:35;15.60;99.90
19200;DHT22;9732;52.498;5.408;2022-09-09T04:41:02;15.70;99.90
19200;DHT22;9732;52.498;5.408;2022-09-09T04:43:29;15.60;99.90
19200;DHT22;9732;52.498;5.408;2022-09-09T04:45:57;15.60;99.90
19200;DHT22;9732;52.498;5.408;2022-09-09T04:48:25;15.60;99.90
19200;DHT22;9732;52.498;5.408;2022-09-09T04:50:56;15.60;99.90
19200;DHT22;9732;52.498;5.408;2022-09-09T04:53:23;15.60;99.90
19200;DHT22;9732;52.498;5.408;2022-09-09T04:55:50;15.60;99.90
19200;DHT22;9732;52.498;5.408;2022-09-09T04:58:18;15.60;99.90
19200;DHT22;9732;52.498;5.408;2022-09-09T05:00:47;15.60;99.90
19200;DHT22;9732;52.498;5.408;2022-09-09T05:03:15;15.50;99.90
19200;DHT22;9732;52.498;5.408;2022-09-09T05:05:42;15.50;99.90
19200;DHT22;9732;52.498;5.408;2022-09-09T05:08:09;15.50;99.90
19200;DHT22;9732;52.498;5.408;2022-09-09T05:10:38;15.40;99.90
19200;DHT22;9732;52.498;5.408;2022-09-09T05:13:07;15.40;99.90
19200;DHT22;9732;52.498;5.408;2022-09-09T05:15:34;15.40;99.90
19200;DHT22;9732;52.498;5.408;2022-09-09T05:18:02;15.40;99.90
19200;DHT22;9732;52.498;5.408;2022-09-09T05:20:30;15.40;99.90
19200;DHT22;9732;52.498;5.408;2022-09-09T05:22:57;15.40;99.90
19200;DHT22;9732;52.498;5.408;2022-09-09T05:25:24;15.40;99.90
19200;DHT22;9732;52.498;5.408;2022-09-09T05:27:51;15.40;99.90
19200;DHT22;9732;52.498;5.408;2022-09-09T05:30:19;15.50;99.90
19200;DHT22;9732;52.498;5.408;2022-09-09T05:32:46;15.50;99.90
19200;DHT22;9732;52.498;5.408;2022-09-09T05:35:13;15.50;99.90
19200;DHT22;9732;52.498;5.408;2022-09-09T05:37:41;15.40;99.90
19200;DHT22;9732;52.498;5.408;2022-09-09T05:40:08;15.50;99.90
19200;DHT22;9732;52.498;5.408;2022-09-09T05:42:36;15.50;99.90
19200;DHT22;9732;52.498;5.408;2022-09-09T05:45:04;15.50;99.90
19200;DHT22;9732;52.498;5.408;2022-09-09T05:47:30;15.50;99.90
19200;DHT22;9732;52.498;5.408;2022-09-09T05:49:57;15.50;99.90
19200;DHT22;9732;52.498;5.408;2022-09-09T05:52:24;15.50;99.90
19200;DHT22;9732;52.498;5.408;2022-09-09T05:54:53;15.50;99.90
19200;DHT22;9732;52.498;5.408;2022-09-09T05:57:20;15.50;99.90
19200;DHT22;9732;52.498;5.408;2022-09-09T05:59:47;15.50;99.90
19200;DHT22;9732;52.498;5.408;2022-09-09T06:02:13;15.50;99.90
19200;DHT22;9732;52.498;5.408;2022-09-09T06:04:40;15.50;99.90
19200;DHT22;9732;52.498;5.408;2022-09-09T06:07:07;15.60;99.90
19200;DHT22;9732;52.498;5.408;2022-09-09T06:09:33;15.50;99.90
19200;DHT22;9732;52.498;5.408;2022-09-09T06:12:02;15.60;99.90
19200;DHT22;9732;52.498;5.408;2022-09-09T06:14:29;15.60;99.90
19200;DHT22;9732;52.498;5.408;2022-09-09T06:16:55;15.60;99.90
19200;DHT22;9732;52.498;5.408;2022-09-09T06:19:22;15.60;99.90
19200;DHT22;9732;52.498;5.408;2022-09-09T06:21:52;15.70;99.90
19200;DHT22;9732;52.498;5.408;2022-09-09T06:24:19;15.70;99.90
19200;DHT22;9732;52.498;5.408;2022-09-09T06:26:45;15.80;99.90
19200;DHT22;9732;52.498;5.408;2022-09-09T06:29:13;15.80;99.90
19200;DHT22;9732;52.498;5.408;2022-09-09T06:31:40;15.80;99.90
19200;DHT22;9732;52.498;5.408;2022-09-09T06:34:08;15.90;99.90
19200;DHT22;9732;52.498;5.408;2022-09-09T06:36:35;15.90;99.90
19200;DHT22;9732;52.498;5.408;2022-09-09T06:39:03;16.00;99.90
19200;DHT22;9732;52.498;5.408;2022-09-09T06:41:31;16.00;99.90
19200;DHT22;9732;52.498;5.408;2022-09-09T06:43:58;16.00;99.90
19200;DHT22;9732;52.498;5.408;2022-09-09T06:46:28;16.10;99.90
19200;DHT22;9732;52.498;5.408;2022-09-09T06:48:56;16.20;99.90
19200;DHT22;9732;52.498;5.408;2022-09-09T06:51:26;16.20;99.90
19200;DHT22;9732;52.498;5.408;2022-09-09T06:53:54;16.30;99.90
19200;DHT22;9732;52.498;5.408;2022-09-09T06:56:23;16.30;99.90
19200;DHT22;9732;52.498;5.408;2022-09-09T06:58:51;16.40;99.90
19200;DHT22;9732;52.498;5.408;2022-09-09T07:01:20;16.40;99.90
19200;DHT22;9732;52.498;5.408;2022-09-09T07:03:51;16.50;99.90
19200;DHT22;9732;52.498;5.408;2022-09-09T07:06:19;16.60;99.90
19200;DHT22;9732;52.498;5.408;2022-09-09T07:08:50;16.70;99.90
19200;DHT22;9732;52.498;5.408;2022-09-09T07:11:19;16.70;99.90
19200;DHT22;9732;52.498;5.408;2022-09-09T07:13:46;16.70;99.90
19200;DHT22;9732;52.498;5.408;2022-09-09T07:16:14;16.70;99.90
19200;DHT22;9732;52.498;5.408;2022-09-09T07:18:41;16.70;99.90
19200;DHT22;9732;52.498;5.408;2022-09-09T07:21:11;16.80;99.90
19200;DHT22;9732;52.498;5.408;2022-09-09T07:23:39;16.90;99.90
19200;DHT22;9732;52.498;5.408;2022-09-09T07:26:08;16.90;99.90
19200;DHT22;9732;52.498;5.408;2022-09-09T07:28:36;16.90;99.90
19200;DHT22;9732;52.498;5.408;2022-09-09T07:31:03;17.00;99.90
19200;DHT22;9732;52.498;5.408;2022-09-09T07:33:31;17.00;99.90
19200;DHT22;9732;52.498;5.408;2022-09-09T07:36:03;17.00;99.90
19200;DHT22;9732;52.498;5.408;2022-09-09T07:38:31;17.10;99.90
19200;DHT22;9732;52.498;5.408;2022-09-09T07:41:03;17.20;99.90
19200;DHT22;9732;52.498;5.408;2022-09-09T07:43:31;17.30;99.90
19200;DHT22;9732;52.498;5.408;2022-09-09T07:45:59;17.30;99.90
19200;DHT22;9732;52.498;5.408;2022-09-09T07:48:26;17.40;99.90
19200;DHT22;9732;52.498;5.408;2022-09-09T07:51:03;17.50;99.90
19200;DHT22;9732;52.498;5.408;2022-09-09T07:53:32;17.40;99.90
19200;DHT22;9732;52.498;5.408;2022-09-09T07:56:03;17.50;99.90
19200;DHT22;9732;52.498;5.408;2022-09-09T07:58:29;17.50;99.90
19200;DHT22;9732;52.498;5.408;2022-09-09T08:00:56;17.50;99.90
19200;DHT22;9732;52.498;5.408;2022-09-09T08:03:23;17.50;99.90
19200;DHT22;9732;52.498;5.408;2022-09-09T08:05:49;17.40;99.90
19200;DHT22;9732;52.498;5.408;2022-09-09T08:08:17;17.50;99.90
19200;DHT22;9732;52.498;5.408;2022-09-09T08:10:45;17.50;99.90
19200;DHT22;9732;52.498;5.408;2022-09-09T08:13:11;17.60;99.90
19200;DHT22;9732;52.498;5.408;2022-09-09T08:15:39;17.60;99.90
19200;DHT22;9732;52.498;5.408;2022-09-09T08:18:06;17.70;99.90
19200;DHT22;9732;52.498;5.408;2022-09-09T08:20:36;17.60;99.90
19200;DHT22;9732;52.498;5.408;2022-09-09T08:23:03;17.70;99.90
19200;DHT22;9732;52.498;5.408;2022-09-09T08:25:30;17.80;99.90
19200;DHT22;9732;52.498;5.408;2022-09-09T08:27:58;17.90;99.90
19200;DHT22;9732;52.498;5.408;2022-09-09T08:30:24;17.80;99.90
19200;DHT22;9732;52.498;5.408;2022-09-09T08:32:52;17.90;99.90
19200;DHT22;9732;52.498;5.408;2022-09-09T08:35:19;17.90;99.90
19200;DHT22;9732;52.498;5.408;2022-09-09T08:37:46;17.80;99.90
19200;DHT22;9732;52.498;5.408;2022-09-09T08:40:20;17.80;99.90
19200;DHT22;9732;52.498;5.408;2022-09-09T08:42:50;17.80;99.90
19200;DHT22;9732;52.498;5.408;2022-09-09T08:45:28;17.70;99.90
19200;DHT22;9732;52.498;5.408;2022-09-09T08:48:10;17.60;99.90
19200;DHT22;9732;52.498;5.408;2022-09-09T08:50:40;17.60;99.90
19200;DHT22;9732;52.498;5.408;2022-09-09T08:53:13;17.60;99.90
19200;DHT22;9732;52.498;5.408;2022-09-09T08:55:45;17.60;99.90
19200;DHT22;9732;52.498;5.408;2022-09-09T08:58:15;17.60;99.90
19200;DHT22;9732;52.498;5.408;2022-09-09T09:00:56;17.70;99.90
19200;DHT22;9732;52.498;5.408;2022-09-09T09:03:33;17.70;99.90
19200;DHT22;9732;52.498;5.408;2022-09-09T09:06:06;17.80;99.90
19200;DHT22;9732;52.498;5.408;2022-09-09T09:08:41;17.80;99.90
19200;DHT22;9732;52.498;5.408;2022-09-09T09:11:10;17.80;99.90
19200;DHT22;9732;52.498;5.408;2022-09-09T09:13:43;17.70;99.90
19200;DHT22;9732;52.498;5.408;2022-09-09T09:16:19;17.70;99.90
19200;DHT22;9732;52.498;5.408;2022-09-09T09:18:48;17.80;99.90
19200;DHT22;9732;52.498;5.408;2022-09-09T09:21:19;17.80;99.90
19200;DHT22;9732;52.498;5.408;2022-09-09T09:23:55;17.70;99.90
19200;DHT22;9732;52.498;5.408;2022-09-09T09:26:24;17.70;99.90
19200;DHT22;9732;52.498;5.408;2022-09-09T09:28:55;17.70;99.90
19200;DHT22;9732;52.498;5.408;2022-09-09T09:31:24;17.70;99.90
19200;DHT22;9732;52.498;5.408;2022-09-09T09:33:53;17.80;99.90
19200;DHT22;9732;52.498;5.408;2022-09-09T09:36:20;17.80;99.90
19200;DHT22;9732;52.498;5.408;2022-09-09T09:38:56;17.90;99.90
19200;DHT22;9732;52.498;5.408;2022-09-09T09:41:31;18.00;99.90
19200;DHT22;9732;52.498;5.408;2022-09-09T09:43:59;18.10;99.90
19200;DHT22;9732;52.498;5.408;2022-09-09T09:46:28;18.20;99.90
19200;DHT22;9732;52.498;5.408;2022-09-09T09:49:00;18.40;99.90
19200;DHT22;9732;52.498;5.408;2022-09-09T09:51:28;18.40;99.90
19200;DHT22;9732;52.498;5.408;2022-09-09T09:54:08;18.40;99.90
19200;DHT22;9732;52.498;5.408;2022-09-09T09:56:36;18.30;99.90
19200;DHT22;9732;52.498;5.408;2022-09-09T09:59:03;18.30;99.90
19200;DHT22;9732;52.498;5.408;2022-09-09T10:01:32;18.30;99.90
19200;DHT22;9732;52.498;5.408;2022-09-09T10:04:02;18.20;99.90
19200;DHT22;9732;52.498;5.408;2022-09-09T10:06:30;18.20;99.90
19200;DHT22;9732;52.498;5.408;2022-09-09T10:08:57;18.20;99.90
19200;DHT22;9732;52.498;5.408;2022-09-09T10:11:37;18.20;99.90
19200;DHT22;9732;52.498;5.408;2022-09-09T10:14:15;18.10;99.90
19200;DHT22;9732;52.498;5.408;2022-09-09T10:16:54;18.20;99.90
19200;DHT22;9732;52.498;5.408;2022-09-09T10:19:30;18.20;99.90
19200;DHT22;9732;52.498;5.408;2022-09-09T10:22:04;18.10;99.90
19200;DHT22;9732;52.498;5.408;2022-09-09T10:27:51;18.00;99.90
19200;DHT22;9732;52.498;5.408;2022-09-09T10:30:22;18.00;99.90
19200;DHT22;9732;52.498;5.408;2022-09-09T10:32:56;18.00;99.90
19200;DHT22;9732;52.498;5.408;2022-09-09T10:35:30;18.00;99.90
19200;DHT22;9732;52.498;5.408;2022-09-09T10:38:14;18.10;99.90
19200;DHT22;9732;52.498;5.408;2022-09-09T10:40:49;18.00;99.90
19200;DHT22;9732;52.498;5.408;2022-09-09T10:43:37;18.20;99.90
19200;DHT22;9732;52.498;5.408;2022-09-09T10:46:10;18.20;99.90
19200;DHT22;9732;52.498;5.408;2022-09-09T10:48:57;18.20;99.90
19200;DHT22;9732;52.498;5.408;2022-09-09T10:51:36;18.10;99.90
19200;DHT22;9732;52.498;5.408;2022-09-09T10:54:25;18.10;99.90
19200;DHT22;9732;52.498;5.408;2022-09-09T10:56:58;18.10;99.90
19200;DHT22;9732;52.498;5.408;2022-09-09T10:59:29;18.10;99.90
19200;DHT22;9732;52.498;5.408;2022-09-09T11:02:00;18.00;99.90
19200;DHT22;9732;52.498;5.408;2022-09-09T11:04:33;18.20;99.90
19200;DHT22;9732;52.498;5.408;2022-09-09T11:07:06;18.50;99.90
19200;DHT22;9732;52.498;5.408;2022-09-09T11:09:38;18.70;99.90
19200;DHT22;9732;52.498;5.408;2022-09-09T11:12:10;19.20;99.90
19200;DHT22;9732;52.498;5.408;2022-09-09T11:14:42;19.70;99.90
19200;DHT22;9732;52.498;5.408;2022-09-09T11:17:12;20.00;99.90
19200;DHT22;9732;52.498;5.408;2022-09-09T11:19:43;20.10;99.90
19200;DHT22;9732;52.498;5.408;2022-09-09T11:22:17;19.90;99.90
19200;DHT22;9732;52.498;5.408;2022-09-09T11:24:47;19.60;99.90
19200;DHT22;9732;52.498;5.408;2022-09-09T11:27:19;19.20;99.90
19200;DHT22;9732;52.498;5.408;2022-09-09T11:30:05;18.90;99.90
19200;DHT22;9732;52.498;5.408;2022-09-09T11:33:00;18.90;99.90
19200;DHT22;9732;52.498;5.408;2022-09-09T11:35:38;19.10;99.90
19200;DHT22;9732;52.498;5.408;2022-09-09T11:38:25;19.40;99.90
19200;DHT22;9732;52.498;5.408;2022-09-09T11:40:58;19.50;99.90
19200;DHT22;9732;52.498;5.408;2022-09-09T11:43:29;19.40;99.90
19200;DHT22;9732;52.498;5.408;2022-09-09T11:45:59;19.30;99.90
19200;DHT22;9732;52.498;5.408;2022-09-09T11:48:33;19.40;99.90
19200;DHT22;9732;52.498;5.408;2022-09-09T11:51:04;19.70;99.90
19200;DHT22;9732;52.498;5.408;2022-09-09T11:53:33;19.90;99.90
19200;DHT22;9732;52.498;5.408;2022-09-09T11:56:03;20.00;99.90
19200;DHT22;9732;52.498;5.408;2022-09-09T11:58:36;20.00;99.90
19200;DHT22;9732;52.498;5.408;2022-09-09T12:01:14;20.00;99.90
19200;DHT22;9732;52.498;5.408;2022-09-09T12:03:43;20.00;99.90
19200;DHT22;9732;52.498;5.408;2022-09-09T12:06:15;19.90;99.90
19200;DHT22;9732;52.498;5.408;2022-09-09T12:08:46;20.00;99.90
19200;DHT22;9732;52.498;5.408;2022-09-09T12:11:24;20.20;99.90
19200;DHT22;9732;52.498;5.408;2022-09-09T12:13:55;20.30;99.90
19200;DHT22;9732;52.498;5.408;2022-09-09T12:16:30;20.10;99.90
19200;DHT22;9732;52.498;5.408;2022-09-09T12:19:15;20.00;99.90
19200;DHT22;9732;52.498;5.408;2022-09-09T12:21:50;19.90;99.90
19200;DHT22;9732;52.498;5.408;2022-09-09T12:24:23;19.70;99.90
19200;DHT22;9732;52.498;5.408;2022-09-09T12:26:58;19.60;99.90
19200;DHT22;9732;52.498;5.408;2022-09-09T12:29:31;19.50;99.90
19200;DHT22;9732;52.498;5.408;2022-09-09T12:32:06;19.50;99.90
19200;DHT22;9732;52.498;5.408;2022-09-09T12:34:38;19.40;99.90
19200;DHT22;9732;52.498;5.408;2022-09-09T12:37:14;19.50;99.90
19200;DHT22;9732;52.498;5.408;2022-09-09T12:39:46;19.40;99.90
19200;DHT22;9732;52.498;5.408;2022-09-09T12:42:19;19.30;99.90
19200;DHT22;9732;52.498;5.408;2022-09-09T12:44:54;19.20;99.90
19200;DHT22;9732;52.498;5.408;2022-09-09T12:47:24;19.10;99.90
19200;DHT22;9732;52.498;5.408;2022-09-09T12:49:52;19.00;99.90
19200;DHT22;9732;52.498;5.408;2022-09-09T12:52:27;19.10;99.90
19200;DHT22;9732;52.498;5.408;2022-09-09T12:54:55;19.30;99.90
19200;DHT22;9732;52.498;5.408;2022-09-09T12:57:24;19.40;99.90
19200;DHT22;9732;52.498;5.408;2022-09-09T12:59:52;19.40;99.90
19200;DHT22;9732;52.498;5.408;2022-09-09T13:02:21;19.40;99.90
19200;DHT22;9732;52.498;5.408;2022-09-09T13:04:48;19.50;99.90
19200;DHT22;9732;52.498;5.408;2022-09-09T13:07:16;19.50;99.90
19200;DHT22;9732;52.498;5.408;2022-09-09T13:09:45;19.70;99.90
19200;DHT22;9732;52.498;5.408;2022-09-09T13:12:14;19.90;99.90
19200;DHT22;9732;52.498;5.408;2022-09-09T13:14:44;20.20;99.90
19200;DHT22;9732;52.498;5.408;2022-09-09T13:17:18;20.60;99.90
19200;DHT22;9732;52.498;5.408;2022-09-09T13:19:46;20.60;99.90
19200;DHT22;9732;52.498;5.408;2022-09-09T13:22:14;20.90;99.90
19200;DHT22;9732;52.498;5.408;2022-09-09T13:24:41;21.10;99.90
19200;DHT22;9732;52.498;5.408;2022-09-09T13:27:26;21.10;99.90
19200;DHT22;9732;52.498;5.408;2022-09-09T13:29:55;20.70;99.90
19200;DHT22;9732;52.498;5.408;2022-09-09T13:32:23;20.40;99.90
19200;DHT22;9732;52.498;5.408;2022-09-09T13:34:52;20.00;99.90
19200;DHT22;9732;52.498;5.408;2022-09-09T13:37:23;19.90;99.90
19200;DHT22;9732;52.498;5.408;2022-09-09T13:39:51;19.70;99.90
19200;DHT22;9732;52.498;5.408;2022-09-09T13:42:25;19.60;99.90
19200;DHT22;9732;52.498;5.408;2022-09-09T13:44:53;19.50;99.90
19200;DHT22;9732;52.498;5.408;2022-09-09T13:47:22;19.60;99.90
19200;DHT22;9732;52.498;5.408;2022-09-09T13:49:53;19.70;99.90
19200;DHT22;9732;52.498;5.408;2022-09-09T13:52:20;19.80;99.90
19200;DHT22;9732;52.498;5.408;2022-09-09T13:54:48;20.00;99.90
19200;DHT22;9732;52.498;5.408;2022-09-09T13:57:17;19.80;99.90
19200;DHT22;9732;52.498;5.408;2022-09-09T13:59:45;19.60;99.90
19200;DHT22;9732;52.498;5.408;2022-09-09T14:02:12;19.30;99.90
19200;DHT22;9732;52.498;5.408;2022-09-09T14:04:39;19.30;99.90
19200;DHT22;9732;52.498;5.408;2022-09-09T14:07:10;19.10;99.90
19200;DHT22;9732;52.498;5.408;2022-09-09T14:09:38;18.90;99.90
19200;DHT22;9732;52.498;5.408;2022-09-09T14:12:05;18.80;99.90
19200;DHT22;9732;52.498;5.408;2022-09-09T14:14:32;18.80;99.90
19200;DHT22;9732;52.498;5.408;2022-09-09T14:17:00;18.70;99.90
19200;DHT22;9732;52.498;5.408;2022-09-09T14:19:26;18.70;99.90
19200;DHT22;9732;52.498;5.408;2022-09-09T14:21:53;18.80;99.90
19200;DHT22;9732;52.498;5.408;2022-09-09T14:24:20;18.80;99.90
19200;DHT22;9732;52.498;5.408;2022-09-09T14:26:47;18.90;99.90
19200;DHT22;9732;52.498;5.408;2022-09-09T14:29:13;18.90;99.90
19200;DHT22;9732;52.498;5.408;2022-09-09T14:31:40;18.90;99.90
19200;DHT22;9732;52.498;5.408;2022-09-09T14:34:09;18.90;99.90
19200;DHT22;9732;52.498;5.408;2022-09-09T14:36:36;19.00;99.90
19200;DHT22;9732;52.498;5.408;2022-09-09T14:39:03;19.10;99.90
19200;DHT22;9732;52.498;5.408;2022-09-09T14:41:30;19.20;99.90
19200;DHT22;9732;52.498;5.408;2022-09-09T14:43:57;19.30;99.90
19200;DHT22;9732;52.498;5.408;2022-09-09T14:46:25;19.40;99.90
19200;DHT22;9732;52.498;5.408;2022-09-09T14:48:52;19.40;99.90
19200;DHT22;9732;52.498;5.408;2022-09-09T14:51:22;19.30;99.90
19200;DHT22;9732;52.498;5.408;2022-09-09T14:53:51;19.30;99.90
19200;DHT22;9732;52.498;5.408;2022-09-09T14:56:21;19.10;99.90
19200;DHT22;9732;52.498;5.408;2022-09-09T14:58:49;19.20;99.90
19200;DHT22;9732;52.498;5.408;2022-09-09T15:01:18;19.20;99.90
19200;DHT22;9732;52.498;5.408;2022-09-09T15:03:49;19.30;99.90
19200;DHT22;9732;52.498;5.408;2022-09-09T15:06:17;19.20;99.90
19200;DHT22;9732;52.498;5.408;2022-09-09T15:08:46;19.20;99.90
19200;DHT22;9732;52.498;5.408;2022-09-09T15:11:14;19.20;99.90
19200;DHT22;9732;52.498;5.408;2022-09-09T15:13:42;19.30;99.90
19200;DHT22;9732;52.498;5.408;2022-09-09T15:16:10;19.30;99.90
19200;DHT22;9732;52.498;5.408;2022-09-09T15:18:38;19.30;99.90
19200;DHT22;9732;52.498;5.408;2022-09-09T15:21:09;19.20;99.90
19200;DHT22;9732;52.498;5.408;2022-09-09T15:23:35;19.10;99.90
19200;DHT22;9732;52.498;5.408;2022-09-09T15:26:04;19.10;99.90
19200;DHT22;9732;52.498;5.408;2022-09-09T15:28:32;19.00;99.90
19200;DHT22;9732;52.498;5.408;2022-09-09T15:31:05;19.20;99.90
19200;DHT22;9732;52.498;5.408;2022-09-09T15:33:33;19.20;99.90
19200;DHT22;9732;52.498;5.408;2022-09-09T15:36:12;19.10;99.90
19200;DHT22;9732;52.498;5.408;2022-09-09T15:38:39;19.20;99.90
19200;DHT22;9732;52.498;5.408;2022-09-09T15:41:07;19.20;99.90
19200;DHT22;9732;52.498;5.408;2022-09-09T15:43:34;19.30;99.90
19200;DHT22;9732;52.498;5.408;2022-09-09T15:46:09;19.40;99.90
19200;DHT22;9732;52.498;5.408;2022-09-09T15:48:50;19.50;99.90
19200;DHT22;9732;52.498;5.408;2022-09-09T15:51:17;19.60;99.90
19200;DHT22;9732;52.498;5.408;2022-09-09T15:53:44;19.60;99.90
19200;DHT22;9732;52.498;5.408;2022-09-09T15:56:12;19.60;99.90
19200;DHT22;9732;52.498;5.408;2022-09-09T15:58:38;19.60;99.90
19200;DHT22;9732;52.498;5.408;2022-09-09T16:01:07;19.60;99.90
19200;DHT22;9732;52.498;5.408;2022-09-09T16:03:34;19.60;99.90
19200;DHT22;9732;52.498;5.408;2022-09-09T16:06:01;19.50;99.90
19200;DHT22;9732;52.498;5.408;2022-09-09T16:08:31;19.40;99.90